Time;durP1;ratioP1;P1;durP2;ratioP2;P2;SDS_P1;SDS_P2;PMS_P1;PMS_P2;Temp;Humidity;BMP_temperature;BMP_pressure;BME280_temperature;BME280_humidity;BME280_pressure;Samples;Min_cycle;Max_cycle;Signal;HPM_P1;HPM_P2
2022/09/29 00:00:40;;;;;;;3.15;2.30;;;;;;;6.16;90.71;99915.19;4937802;29;20074;-85
2022/09/29 00:03:06;;;;;;;2.30;2.10;;;;;;;6.15;91.30;99912.63;4938030;29;20035;-85
2022/09/29 00:05:31;;;;;;;2.30;2.10;;;;;;;6.15;91.33;99920.34;4937718;29;20043;-85
2022/09/29 00:07:57;;;;;;;2.45;2.25;;;;;;;6.15;91.17;99917.78;4937222;29;20512;-85
2022/09/29 00:10:22;;;;;;;3.03;2.40;;;;;;;6.12;90.96;99916.09;4937754;29;20036;-85
2022/09/29 00:12:48;;;;;;;2.95;2.20;;;;;;;6.11;91.19;99918.69;4937488;29;20027;-85
2022/09/29 00:15:14;;;;;;;2.30;2.10;;;;;;;6.03;91.32;99913.59;4937989;29;20023;-85
2022/09/29 00:17:42;;;;;;;2.20;2.00;;;;;;;5.96;91.50;99915.41;4938101;29;20098;-85
2022/09/29 00:20:09;;;;;;;1.75;1.65;;;;;;;5.92;91.20;99924.00;4936678;29;20090;-85
2022/09/29 00:22:35;;;;;;;1.90;1.80;;;;;;;5.89;91.44;99911.16;4937817;29;20118;-85
2022/09/29 00:25:00;;;;;;;2.17;2.00;;;;;;;5.86;91.43;99909.47;4937461;29;20163;-85
2022/09/29 00:27:25;;;;;;;2.35;2.15;;;;;;;5.88;91.33;99919.75;4937111;29;20044;-85
2022/09/29 00:29:51;;;;;;;2.45;2.10;;;;;;;5.86;91.23;99912.06;4937423;29;20030;-85
2022/09/29 00:32:16;;;;;;;2.30;2.10;;;;;;;5.87;91.20;99913.78;4937727;29;20552;-85
2022/09/29 00:34:42;;;;;;;3.00;2.30;;;;;;;5.85;91.26;99912.09;4936490;29;20115;-85
2022/09/29 00:37:07;;;;;;;2.72;2.25;;;;;;;5.81;91.12;99908.66;4936680;29;20042;-85
2022/09/29 00:39:32;;;;;;;2.53;2.15;;;;;;;5.77;91.20;99911.28;4937434;29;20350;-84
2022/09/29 00:41:58;;;;;;;2.20;2.00;;;;;;;5.76;91.12;99907.88;4936551;29;20122;-85
2022/09/29 00:45:01;;;;;;;2.35;2.15;;;;;;;5.75;91.32;99908.75;4937562;29;20043;-85
2022/09/29 00:47:28;;;;;;;3.20;2.45;;;;;;;5.73;91.10;99913.06;4937631;29;20027;-85
2022/09/29 00:50:04;;;;;;;2.50;2.30;;;;;;;5.72;91.22;99904.50;4936335;29;20046;-86
2022/09/29 00:52:35;;;;;;;3.40;2.75;;;;;;;5.70;91.40;99906.22;4937111;29;20074;-85
2022/09/29 00:55:06;;;;;;;3.55;2.60;;;;;;;5.70;91.23;99907.94;4936257;29;20126;-85
2022/09/29 00:57:43;;;;;;;3.40;2.60;;;;;;;5.68;91.04;99910.53;4937094;29;20024;-85
2022/09/29 01:00:12;;;;;;;3.35;2.67;;;;;;;5.65;91.19;99902.81;4936975;29;20051;-85
2022/09/29 01:02:41;;;;;;;3.60;2.58;;;;;;;5.61;91.75;99905.44;4936444;29;20019;-85
2022/09/29 01:05:11;;;;;;;2.70;2.50;;;;;;;5.56;91.68;99900.34;4936788;29;20030;-86
2022/09/29 01:07:38;;;;;;;2.60;2.40;;;;;;;5.56;91.55;99908.94;4937185;29;20473;-85
2022/09/29 01:10:05;;;;;;;2.65;2.45;;;;;;;5.56;91.39;99905.50;4936054;29;20028;-86
2022/09/29 01:12:31;;;;;;;3.00;2.47;;;;;;;5.54;91.48;99899.50;4937077;29;20031;-86
2022/09/29 01:14:56;;;;;;;2.50;2.25;;;;;;;5.51;91.37;99897.81;4936570;29;20028;-85
2022/09/29 01:17:22;;;;;;;3.20;2.33;;;;;;;5.48;91.67;99895.28;4936057;29;20067;-85
2022/09/29 01:20:14;;;;;;;2.70;2.50;;;;;;;5.46;91.58;99903.88;4937032;29;20126;-85
2022/09/29 01:22:55;;;;;;;2.63;2.42;;;;;;;5.43;91.75;99898.75;4936898;29;20067;-85
2022/09/29 01:25:45;;;;;;;3.38;2.50;;;;;;;5.40;91.43;99905.63;4936976;29;20032;-85
2022/09/29 01:28:45;;;;;;;2.95;2.40;;;;;;;5.39;91.58;99906.53;4936349;29;20114;-85
2022/09/29 01:31:30;;;;;;;2.35;2.13;;;;;;;5.37;91.83;99907.38;4873135;29;20048;-85
2022/09/29 01:34:21;;;;;;;3.47;2.50;;;;;;;5.34;92.05;99908.28;4924023;29;20042;-86
2022/09/29 01:37:04;;;;;;;3.80;2.53;;;;;;;5.31;91.62;99908.28;4936825;29;20028;-85
2022/09/29 01:39:35;;;;;;;3.17;2.50;;;;;;;5.29;91.69;99911.75;4936590;29;20027;-86
2022/09/29 01:42:06;;;;;;;2.70;2.40;;;;;;;5.29;91.69;99904.91;4936251;29;20102;-85
2022/09/29 01:44:40;;;;;;;3.05;2.58;;;;;;;5.29;91.83;99909.19;4935691;29;20122;-85
2022/09/29 01:47:15;;;;;;;3.75;2.50;;;;;;;5.28;91.87;99912.63;4936282;29;20043;-85
2022/09/29 01:49:45;;;;;;;2.92;2.30;;;;;;;5.24;92.21;99910.06;4936090;29;20051;-85
2022/09/29 01:52:18;;;;;;;3.15;2.40;;;;;;;5.22;92.20;99914.38;4935197;29;20488;-85
2022/09/29 01:55:09;;;;;;;3.45;2.40;;;;;;;5.20;92.04;99913.53;4936254;29;20465;-85
2022/09/29 01:57:48;;;;;;;3.08;2.53;;;;;;;5.23;91.97;99915.22;4935213;29;20051;-85
2022/09/29 02:00:16;;;;;;;2.75;2.53;;;;;;;5.23;91.95;99913.53;4935127;29;20032;-85
2022/09/29 02:03:16;;;;;;;3.60;2.65;;;;;;;5.24;91.83;99914.38;4935859;29;20039;-85
2022/09/29 02:05:50;;;;;;;2.85;2.50;;;;;;;5.21;91.87;99914.38;4935645;29;20055;-86
2022/09/29 02:08:26;;;;;;;2.70;2.50;;;;;;;5.23;91.68;99917.81;4936100;29;20032;-85
2022/09/29 02:11:01;;;;;;;3.97;2.75;;;;;;;5.22;91.65;99919.53;4935656;29;20087;-85
2022/09/29 02:13:31;;;;;;;3.92;2.78;;;;;;;5.22;91.66;99913.53;4935222;29;20433;-86
2022/09/29 02:15:58;;;;;;;2.75;2.55;;;;;;;5.20;91.92;99913.53;4935965;29;20042;-86
2022/09/29 02:18:31;;;;;;;2.83;2.38;;;;;;;5.16;91.56;99914.41;4936061;29;20028;-85
2022/09/29 02:20:56;;;;;;;3.00;2.50;;;;;;;5.11;92.00;99911.06;4935021;29;20020;-86
2022/09/29 02:23:22;;;;;;;4.32;3.03;;;;;;;5.08;92.14;99911.06;4935961;29;20079;-85
2022/09/29 02:25:49;;;;;;;3.08;2.60;;;;;;;5.05;92.13;99911.06;4935587;29;20378;-86
2022/09/29 02:28:16;;;;;;;4.68;2.90;;;;;;;5.02;92.40;99916.25;4935083;29;20058;-86
2022/09/29 02:30:41;;;;;;;3.55;2.55;;;;;;;4.99;92.19;99913.72;4935624;29;20044;-86
2022/09/29 02:33:17;;;;;;;2.92;2.45;;;;;;;4.96;92.18;99914.56;4935513;29;20551;-86
2022/09/29 02:36:24;;;;;;;2.83;2.50;;;;;;;4.94;91.91;99919.72;4935679;29;20036;-86
2022/09/29 02:39:19;;;;;;;3.28;2.53;;;;;;;4.94;92.20;99926.59;4934990;29;20039;-85
2022/09/29 02:41:50;;;;;;;4.30;2.85;;;;;;;4.93;92.05;99925.72;4905015;29;20490;-86
2022/09/29 02:44:36;;;;;;;2.88;2.50;;;;;;;4.92;92.12;99918.03;4935312;29;20038;-86
2022/09/29 02:47:31;;;;;;;2.92;2.50;;;;;;;4.90;92.01;99920.59;4935149;29;20086;-85
2022/09/29 02:50:22;;;;;;;3.90;2.83;;;;;;;4.91;92.01;99912.03;4934995;29;20098;-86
2022/09/29 02:53:04;;;;;;;2.95;2.58;;;;;;;4.93;91.98;99912.03;4935889;29;20024;-86
2022/09/29 02:55:56;;;;;;;4.13;3.03;;;;;;;4.91;92.18;99918.91;4934659;29;20475;-85
2022/09/29 02:58:31;;;;;;;3.70;2.80;;;;;;;4.89;92.18;99912.91;4916606;29;20032;-86
2022/09/29 03:00:58;;;;;;;3.90;2.92;;;;;;;4.87;92.11;99920.66;4921962;29;20174;-86
2022/09/29 03:03:23;;;;;;;3.60;2.90;;;;;;;4.88;92.01;99918.91;4934813;29;20024;-86
2022/09/29 03:05:49;;;;;;;3.30;2.78;;;;;;;4.90;91.83;99917.19;4935717;29;20082;-86
2022/09/29 03:08:15;;;;;;;4.20;3.00;;;;;;;4.87;91.89;99907.78;4935632;29;20042;-85
2022/09/29 03:10:41;;;;;;;3.60;2.58;;;;;;;4.84;91.99;99912.94;4934875;29;20035;-86
2022/09/29 03:13:06;;;;;;;3.47;2.67;;;;;;;4.81;91.83;99922.41;4935100;29;20024;-86
2022/09/29 03:15:31;;;;;;;4.55;2.70;;;;;;;4.77;92.08;99924.97;4934667;29;20040;-86
2022/09/29 03:17:57;;;;;;;4.10;2.97;;;;;;;4.77;91.82;99921.56;4934935;29;20047;-85
2022/09/29 03:20:22;;;;;;;3.80;2.80;;;;;;;4.74;91.91;99917.28;4935477;29;20535;-86
2022/09/29 03:22:48;;;;;;;3.28;2.53;;;;;;;4.71;92.11;99914.75;4934588;29;20082;-86
2022/09/29 03:25:13;;;;;;;3.08;2.40;;;;;;;4.69;92.01;99918.16;4934608;29;20400;-86
2022/09/29 03:27:39;;;;;;;3.17;2.70;;;;;;;4.66;91.87;99913.06;4935117;29;20032;-86
2022/09/29 03:32:49;;;;;;;4.40;3.03;;;;;;;4.58;91.93;99902.84;4935572;29;20091;-86
2022/09/29 03:35:20;;;;;;;4.95;3.08;;;;;;;4.60;92.15;99916.53;4935034;29;20032;-86
2022/09/29 03:37:46;;;;;;;3.60;2.60;;;;;;;4.61;91.86;99916.50;4934784;29;20035;-86
2022/09/29 03:40:11;;;;;;;4.78;3.22;;;;;;;4.59;91.97;99923.38;4934770;29;20051;-85
2022/09/29 03:42:36;;;;;;;3.55;2.80;;;;;;;4.57;91.93;99929.38;4935221;29;20032;-86
2022/09/29 03:45:02;;;;;;;3.70;2.90;;;;;;;4.57;92.22;99927.66;4934172;29;20024;-86
2022/09/29 03:47:27;;;;;;;3.92;3.10;;;;;;;4.56;92.07;99928.53;4935234;29;20035;-86
2022/09/29 03:49:52;;;;;;;3.40;2.88;;;;;;;4.55;92.06;99928.53;4911509;29;20049;-85
2022/09/29 03:52:18;;;;;;;4.22;3.00;;;;;;;4.52;91.73;99929.41;4912608;29;20414;-86
2022/09/29 03:54:44;;;;;;;4.88;3.17;;;;;;;4.48;91.65;99925.16;4918337;29;20032;-86
2022/09/29 03:57:09;;;;;;;3.88;3.03;;;;;;;4.45;91.91;99927.72;4919303;29;20525;-86
2022/09/29 03:59:34;;;;;;;3.90;2.83;;;;;;;4.43;92.11;99930.31;4918592;29;20032;-86
2022/09/29 04:02:00;;;;;;;5.38;2.90;;;;;;;4.41;92.16;99924.31;4919159;29;20032;-86
2022/09/29 04:04:25;;;;;;;4.30;3.05;;;;;;;4.42;92.07;99928.59;4919441;29;20028;-86
2022/09/29 04:06:50;;;;;;;3.97;3.03;;;;;;;4.40;92.22;99929.47;4918597;29;20032;-85
2022/09/29 04:09:34;;;;;;;3.13;2.70;;;;;;;4.41;92.14;99928.63;4919260;29;20465;-86
2022/09/29 04:11:59;;;;;;;4.00;2.85;;;;;;;4.33;91.96;99923.50;4918292;29;20044;-85
2022/09/29 04:14:24;;;;;;;3.38;2.67;;;;;;;4.32;92.05;99929.50;4918978;29;20517;-86
2022/09/29 04:16:50;;;;;;;3.30;2.70;;;;;;;4.34;92.13;99930.34;4918296;29;20057;-84
2022/09/29 04:19:15;;;;;;;4.32;2.78;;;;;;;4.34;92.13;99940.63;4918505;29;20043;-85
2022/09/29 04:21:40;;;;;;;3.90;2.80;;;;;;;4.32;92.55;99935.50;4918872;29;20032;-86
2022/09/29 04:24:06;;;;;;;3.67;2.80;;;;;;;4.31;92.39;99938.06;4924630;23;20056;-86
2022/09/29 04:26:31;;;;;;;3.85;2.83;;;;;;;4.29;92.15;99942.34;4918389;29;20020;-85
2022/09/29 04:28:56;;;;;;;4.55;3.03;;;;;;;4.29;92.32;99934.66;4918582;29;20393;-85
2022/09/29 04:31:22;;;;;;;3.97;2.90;;;;;;;4.26;92.20;99939.81;4919088;29;20072;-85
2022/09/29 04:33:47;;;;;;;4.15;3.10;;;;;;;4.25;91.81;99944.09;4918495;29;20079;-86
2022/09/29 04:36:12;;;;;;;3.78;2.90;;;;;;;4.23;91.96;99948.38;4918590;29;20028;-85
2022/09/29 04:38:37;;;;;;;3.80;2.95;;;;;;;4.21;92.15;99957.81;4918470;29;20032;-85
2022/09/29 04:41:03;;;;;;;4.55;3.00;;;;;;;4.18;92.17;99952.69;4917899;29;20028;-85
2022/09/29 04:43:28;;;;;;;3.78;2.80;;;;;;;4.16;91.82;99968.09;4918577;29;20560;-85
2022/09/29 04:46:03;;;;;;;3.60;2.67;;;;;;;4.14;92.00;99962.13;4917583;29;20123;-85
2022/09/29 04:48:29;;;;;;;3.80;2.58;;;;;;;4.11;92.21;99956.97;4917665;29;20030;-85
2022/09/29 04:50:54;;;;;;;3.58;2.78;;;;;;;4.09;92.06;99961.25;4917882;29;20119;-85
2022/09/29 04:53:19;;;;;;;4.38;2.83;;;;;;;4.11;92.33;99956.97;4918442;29;20100;-85
2022/09/29 04:55:44;;;;;;;3.80;2.90;;;;;;;4.14;92.35;99961.25;4917722;29;20036;-85
2022/09/29 04:58:10;;;;;;;3.90;2.80;;;;;;;4.10;92.23;99962.97;4918047;29;20026;-85
2022/09/29 05:00:35;;;;;;;3.67;2.80;;;;;;;4.07;92.08;99960.41;4918469;29;20347;-86
2022/09/29 05:03:01;;;;;;;3.17;2.70;;;;;;;4.07;92.03;99965.53;4917583;29;20028;-85
2022/09/29 05:05:26;;;;;;;4.05;2.88;;;;;;;4.05;92.21;99958.72;4918119;29;20024;-85
2022/09/29 05:07:52;;;;;;;3.13;2.78;;;;;;;4.04;92.30;99964.69;4917621;29;20035;-85
2022/09/29 05:10:17;;;;;;;4.40;3.05;;;;;;;3.98;92.06;99965.56;4917811;29;20083;-86
2022/09/29 05:12:48;;;;;;;4.25;3.05;;;;;;;3.95;92.04;99973.25;4917792;29;20088;-85
2022/09/29 05:15:14;;;;;;;4.07;3.00;;;;;;;3.93;92.29;99977.56;4917140;29;20056;-86
2022/09/29 05:17:39;;;;;;;4.07;2.97;;;;;;;3.95;92.16;99976.72;4917557;29;20055;-83
2022/09/29 05:20:05;;;;;;;5.03;3.42;;;;;;;3.96;92.42;99975.84;4917504;29;20032;-83
2022/09/29 05:22:33;;;;;;;4.25;3.40;;;;;;;3.97;92.45;99977.56;4917277;29;20036;-86
2022/09/29 05:24:58;;;;;;;6.00;3.22;;;;;;;3.96;92.39;99982.69;4917600;29;20044;-80
2022/09/29 05:27:24;;;;;;;3.50;3.00;;;;;;;3.97;92.51;99980.13;4917732;29;20504;-80
2022/09/29 05:29:49;;;;;;;4.20;3.20;;;;;;;4.00;92.23;99982.66;4916897;29;20080;-80
2022/09/29 05:32:15;;;;;;;4.60;3.25;;;;;;;3.98;92.19;99989.53;4917486;29;20028;-80
2022/09/29 05:34:40;;;;;;;4.75;3.33;;;;;;;3.96;92.16;99991.25;4917714;29;20028;-80
2022/09/29 05:37:05;;;;;;;4.72;3.20;;;;;;;3.93;92.43;99990.41;4916622;29;20433;-80
2022/09/29 05:39:33;;;;;;;4.63;3.22;;;;;;;3.93;92.31;99992.97;4917174;29;20022;-80
2022/09/29 05:41:58;;;;;;;3.75;3.00;;;;;;;3.91;92.25;99992.97;4916876;29;20605;-80
2022/09/29 05:44:24;;;;;;;4.82;3.30;;;;;;;3.90;92.23;99998.13;4916981;29;20140;-80
2022/09/29 05:46:49;;;;;;;4.10;3.10;;;;;;;3.85;92.09;100003.25;4917034;29;20044;-80
2022/09/29 05:49:14;;;;;;;4.50;3.20;;;;;;;3.81;92.15;99998.97;4935536;23;20047;-80
2022/09/29 05:51:40;;;;;;;3.35;2.75;;;;;;;3.80;92.08;99999.81;4935460;29;20187;-84
2022/09/29 05:54:05;;;;;;;5.50;3.28;;;;;;;3.80;92.55;99997.25;4936152;29;20032;-84
2022/09/29 05:56:30;;;;;;;4.25;3.10;;;;;;;3.82;92.37;99995.53;4936211;29;20096;-84
2022/09/29 05:58:55;;;;;;;4.25;2.97;;;;;;;3.83;92.30;100002.41;4935930;29;20111;-84
2022/09/29 06:01:25;;;;;;;3.88;3.10;;;;;;;3.81;92.44;100007.53;4936415;29;20115;-83
2022/09/29 06:03:53;;;;;;;4.22;3.10;;;;;;;3.80;92.18;100007.53;4935321;29;20028;-83
2022/09/29 06:06:22;;;;;;;3.40;2.70;;;;;;;3.79;92.49;100014.38;4934934;29;20039;-83
2022/09/29 06:08:48;;;;;;;3.88;2.78;;;;;;;3.79;91.87;100013.50;4947338;29;20027;-84
2022/09/29 06:11:22;;;;;;;2.92;2.50;;;;;;;3.81;92.65;100012.69;4953560;29;20027;-83
2022/09/29 06:13:49;;;;;;;3.17;2.70;;;;;;;3.80;92.47;100013.53;4952135;29;20042;-84
2022/09/29 06:16:18;;;;;;;4.18;2.80;;;;;;;3.79;92.33;100011.81;4954711;28;20031;-84
2022/09/29 06:18:44;;;;;;;3.65;2.67;;;;;;;3.79;92.31;100014.38;4954131;29;20030;-84
2022/09/29 06:21:12;;;;;;;3.33;2.70;;;;;;;3.81;92.77;100022.94;4955067;29;20038;-86
2022/09/29 06:23:38;;;;;;;2.97;2.50;;;;;;;3.82;92.65;100022.09;4955463;29;20015;-86
2022/09/29 06:26:08;;;;;;;2.60;2.40;;;;;;;3.84;92.51;100029.78;4945133;23;20059;-87
2022/09/29 06:28:34;;;;;;;2.53;2.10;;;;;;;3.90;92.47;100028.91;4936297;29;20024;-84
2022/09/29 06:31:05;;;;;;;2.55;2.30;;;;;;;3.93;92.86;100027.19;4935552;29;20058;-86
2022/09/29 06:33:32;;;;;;;3.40;2.50;;;;;;;3.99;92.88;100031.47;4936472;29;20031;-89
2022/09/29 06:38:46;;;;;;;5.35;3.40;;;;;;;4.24;94.20;100044.28;4936850;29;20095;-89
2022/09/29 06:41:11;;;;;;;4.82;2.97;;;;;;;4.32;93.92;100043.41;4936242;29;20544;-89
2022/09/29 06:43:37;;;;;;;3.47;2.80;;;;;;;4.46;94.35;100037.34;4936760;29;20027;-89
2022/09/29 06:46:03;;;;;;;3.30;2.75;;;;;;;4.58;94.52;100041.59;4936295;29;20031;-89
2022/09/29 06:48:46;;;;;;;4.13;2.90;;;;;;;4.68;94.35;100051.00;4936114;29;20035;-89
2022/09/29 06:51:13;;;;;;;4.50;3.17;;;;;;;5.22;95.12;100053.31;4936263;29;20484;-89
2022/09/29 06:53:38;;;;;;;4.15;2.88;;;;;;;6.47;95.90;100047.97;4936533;29;20055;-90
2022/09/29 06:56:03;;;;;;;4.60;2.85;;;;;;;7.29;93.93;100041.75;4936474;29;20051;-90
2022/09/29 06:58:29;;;;;;;4.95;3.20;;;;;;;7.43;92.19;100051.88;4956437;23;20038;-88
2022/09/29 07:00:54;;;;;;;6.03;3.60;;;;;;;7.18;90.83;100057.41;4936085;29;20036;-89
2022/09/29 07:03:20;;;;;;;5.35;3.55;;;;;;;6.89;90.82;100071.53;4936241;29;20111;-88
2022/09/29 07:05:46;;;;;;;5.60;3.70;;;;;;;6.63;91.05;100057.25;4935808;29;20032;-88
2022/09/29 07:08:12;;;;;;;7.50;4.60;;;;;;;6.41;91.05;100061.78;4934873;29;20031;-88
2022/09/29 07:10:38;;;;;;;7.65;4.63;;;;;;;6.26;91.81;100064.50;4935815;29;20028;-88
2022/09/29 07:13:04;;;;;;;5.20;3.88;;;;;;;6.22;91.66;100062.84;4936096;29;20504;-88
2022/09/29 07:15:32;;;;;;;7.38;4.20;;;;;;;6.16;92.08;100071.50;4935427;29;20028;-89
2022/09/29 07:17:59;;;;;;;6.10;4.10;;;;;;;6.16;92.16;100068.91;4935935;29;20060;-88
2022/09/29 07:20:26;;;;;;;5.35;3.78;;;;;;;6.13;93.13;100074.97;4935815;29;20498;-88
2022/09/29 07:22:51;;;;;;;5.93;3.90;;;;;;;6.15;92.97;100077.53;4935236;29;20115;-89
2022/09/29 07:25:17;;;;;;;5.63;3.70;;;;;;;6.16;93.25;100077.50;4936274;29;20027;-88
2022/09/29 07:27:42;;;;;;;6.93;3.78;;;;;;;6.20;93.33;100080.88;4935926;29;20034;-88
2022/09/29 07:30:12;;;;;;;7.07;4.32;;;;;;;6.22;94.21;100078.31;4937626;29;20020;-89
2022/09/29 07:32:37;;;;;;;7.55;4.40;;;;;;;6.23;93.92;100082.59;4939105;29;20104;-88
2022/09/29 07:35:04;;;;;;;7.10;4.50;;;;;;;6.27;94.39;100082.56;4937523;29;20028;-88
2022/09/29 07:37:29;;;;;;;7.53;4.60;;;;;;;6.29;93.98;100085.09;4938085;29;20477;-88
2022/09/29 07:39:54;;;;;;;5.90;4.00;;;;;;;6.36;93.91;100083.31;4939248;29;20040;-88
2022/09/29 07:42:20;;;;;;;8.10;5.00;;;;;;;6.44;95.26;100081.50;4939867;29;20023;-88
2022/09/29 07:45:00;;;;;;;12.27;6.22;;;;;;;6.54;94.83;100084.84;4931814;29;20130;-88
2022/09/29 07:47:25;;;;;;;11.27;6.18;;;;;;;6.63;94.97;100090.78;4939182;29;20035;-88
2022/09/29 07:49:50;;;;;;;11.20;5.88;;;;;;;6.73;95.88;100086.34;4938411;29;20131;-88
2022/09/29 07:52:16;;;;;;;11.77;6.43;;;;;;;6.84;96.30;100090.53;4938868;29;20079;-89
2022/09/29 07:54:41;;;;;;;9.68;5.63;;;;;;;6.94;95.66;100094.69;4939379;29;20480;-88
2022/09/29 07:57:06;;;;;;;7.93;5.15;;;;;;;7.02;95.38;100100.66;4937723;29;20062;-88
2022/09/29 07:59:32;;;;;;;6.93;4.40;;;;;;;7.13;95.38;100107.38;4938907;29;20127;-88
2022/09/29 08:02:13;;;;;;;7.97;4.43;;;;;;;7.19;95.93;100097.84;4938769;29;20031;-88
2022/09/29 08:04:38;;;;;;;9.02;5.40;;;;;;;7.29;96.29;100101.13;4938186;29;20465;-86
2022/09/29 08:07:03;;;;;;;9.85;5.53;;;;;;;7.41;96.23;100105.28;4938441;29;20119;-88
2022/09/29 08:09:28;;;;;;;10.18;4.95;;;;;;;7.51;95.39;100103.41;4938572;29;20024;-87
2022/09/29 08:11:57;;;;;;;7.03;4.15;;;;;;;7.61;95.84;100101.56;4937605;29;20036;-88
2022/09/29 08:14:22;;;;;;;6.18;3.65;;;;;;;7.71;95.72;100113.44;4938964;29;20020;-88
2022/09/29 08:16:47;;;;;;;5.10;3.37;;;;;;;7.82;94.94;100115.88;4939000;29;20484;-88
2022/09/29 08:19:13;;;;;;;6.53;3.70;;;;;;;7.93;95.62;100115.69;4938128;29;20035;-87
2022/09/29 08:21:48;;;;;;;8.10;4.97;;;;;;;8.00;95.67;100114.72;4938247;29;20445;-88
2022/09/29 08:24:16;;;;;;;6.25;3.85;;;;;;;8.13;95.12;100121.38;4938089;29;20144;-89
2022/09/29 08:26:41;;;;;;;5.65;3.75;;;;;;;8.23;94.77;100128.97;4938394;29;20031;-89
2022/09/29 08:29:25;;;;;;;5.90;3.90;;;;;;;8.31;94.65;100125.41;4938522;29;20043;-88
2022/09/29 08:31:50;;;;;;;5.63;3.65;;;;;;;8.37;94.86;100119.25;4938433;29;20028;-87
2022/09/29 08:34:16;;;;;;;6.93;3.93;;;;;;;8.42;94.82;100137.28;4938246;29;20361;-88
2022/09/29 08:36:42;;;;;;;9.15;4.70;;;;;;;8.44;94.31;100140.69;4938164;29;20490;-88
2022/09/29 08:39:21;;;;;;;8.03;4.60;;;;;;;8.47;94.89;100140.66;4935957;29;20127;-89
2022/09/29 08:42:07;;;;;;;10.00;5.68;;;;;;;8.52;94.13;100140.59;4938742;29;20035;-88
2022/09/29 08:44:41;;;;;;;10.88;5.85;;;;;;;8.51;93.59;100152.66;4938173;29;20144;-88
2022/09/29 08:50:41;;;;;;;6.85;3.85;;;;;;;8.48;93.24;100153.56;4894934;29;20104;-88
2022/09/29 08:53:11;;;;;;;5.75;3.70;;;;;;;8.49;93.38;100149.28;4937741;29;20050;-88
2022/09/29 08:55:57;;;;;;;5.50;3.25;;;;;;;8.53;93.50;100152.66;4924968;29;20090;-88
2022/09/29 08:58:22;;;;;;;4.25;2.90;;;;;;;8.58;93.13;100159.44;4918975;29;20028;-88
2022/09/29 09:00:56;;;;;;;5.83;3.60;;;;;;;8.64;93.23;100164.50;4925777;29;20031;-88
2022/09/29 09:03:52;;;;;;;6.03;3.63;;;;;;;8.68;92.69;100170.47;4937707;29;20028;-88
2022/09/29 09:06:41;;;;;;;5.65;3.40;;;;;;;8.75;93.03;100166.91;4937435;29;20379;-87
2022/09/29 09:09:17;;;;;;;4.50;2.95;;;;;;;8.81;92.74;100169.34;4936591;29;20024;-87
2022/09/29 09:12:04;;;;;;;3.92;2.80;;;;;;;8.88;92.69;100169.25;4924631;29;20024;-88
2022/09/29 09:14:49;;;;;;;5.60;3.20;;;;;;;8.99;92.53;100169.91;4932078;29;20039;-87
2022/09/29 09:17:36;;;;;;;3.72;2.72;;;;;;;9.09;92.57;100178.31;4928905;29;20119;-87
2022/09/29 09:20:20;;;;;;;4.55;3.13;;;;;;;9.19;92.61;100179.00;4936287;29;20032;-87
2022/09/29 09:22:59;;;;;;;8.30;4.82;;;;;;;9.25;91.07;100179.72;4934546;29;20040;-87
2022/09/29 09:25:40;;;;;;;11.55;5.97;;;;;;;9.31;91.35;100181.34;4918165;29;20437;-88
2022/09/29 09:28:12;;;;;;;9.43;5.50;;;;;;;9.37;91.57;100180.34;4918058;29;20367;-88
2022/09/29 09:30:54;;;;;;;8.73;4.97;;;;;;;9.50;91.85;100184.41;4918406;29;20122;-88
2022/09/29 09:33:36;;;;;;;10.25;4.70;;;;;;;9.69;91.83;100182.22;4917950;29;20052;-88
2022/09/29 09:36:08;;;;;;;5.78;3.60;;;;;;;9.92;92.17;100175.69;4921269;29;20087;-88
2022/09/29 09:38:59;;;;;;;5.85;3.50;;;;;;;10.19;92.43;100171.56;4936939;29;20477;-87
2022/09/29 09:41:27;;;;;;;5.18;3.47;;;;;;;10.49;92.12;100171.75;4935799;29;20511;-87
2022/09/29 09:44:05;;;;;;;5.28;3.30;;;;;;;10.78;91.83;100175.31;4935388;29;20465;-90
2022/09/29 09:46:46;;;;;;;9.07;4.80;;;;;;;11.03;89.36;100176.41;4937620;29;20055;-93
2022/09/29 09:49:34;;;;;;;7.20;4.20;;;;;;;11.19;90.17;100175.06;4937121;29;20028;-92
2022/09/29 09:52:23;;;;;;;6.00;3.97;;;;;;;11.39;90.01;100176.22;4936107;29;20032;-90
2022/09/29 09:54:52;;;;;;;5.53;3.60;;;;;;;11.56;88.88;100173.13;4937310;29;20055;-88
2022/09/29 09:58:02;;;;;;;4.82;3.60;;;;;;;11.73;89.29;100181.25;4937551;29;20062;-91
2022/09/29 10:00:45;;;;;;;3.70;2.80;;;;;;;11.94;89.36;100180.63;4921686;29;20496;-92
2022/09/29 10:03:13;;;;;;;4.82;3.03;;;;;;;12.10;87.46;100188.84;4943935;23;20075;-88
2022/09/29 10:05:41;;;;;;;8.35;3.90;;;;;;;12.23;86.74;100179.72;4935814;29;20028;-88
2022/09/29 10:08:38;;;;;;;4.40;3.40;;;;;;;12.35;86.30;100189.72;4936254;29;20028;-88
2022/09/29 10:11:20;;;;;;;5.35;3.60;;;;;;;12.49;84.63;100185.81;4935997;29;20485;-87
2022/09/29 10:13:47;;;;;;;4.53;3.25;;;;;;;12.58;85.59;100195.06;4935850;29;20031;-88
2022/09/29 10:16:28;;;;;;;7.30;4.20;;;;;;;12.64;80.16;100194.84;4937304;29;20030;-88
2022/09/29 10:18:53;;;;;;;8.13;4.70;;;;;;;12.69;79.03;100190.34;4935946;29;20039;-88
2022/09/29 10:21:28;;;;;;;9.07;5.10;;;;;;;12.73;78.88;100191.94;4936317;29;20440;-87
2022/09/29 10:23:55;;;;;;;6.20;4.05;;;;;;;12.80;82.65;100192.56;4932471;29;20481;-87
2022/09/29 10:26:40;;;;;;;6.80;3.67;;;;;;;12.92;82.34;100193.91;4935957;29;20024;-87
2022/09/29 10:29:27;;;;;;;4.55;3.20;;;;;;;13.08;82.46;100194.19;4935133;29;20034;-87
2022/09/29 10:32:04;;;;;;;3.70;2.70;;;;;;;13.26;83.17;100203.09;4917389;29;20066;-86
2022/09/29 10:34:32;;;;;;;3.67;2.97;;;;;;;13.35;79.92;100209.72;4935827;29;20032;-88
2022/09/29 10:37:00;;;;;;;5.55;3.40;;;;;;;13.38;78.47;100207.88;4935883;29;20024;-87
2022/09/29 10:39:31;;;;;;;3.60;2.70;;;;;;;13.50;80.22;100210.94;4935309;29;20038;-87
2022/09/29 10:41:57;;;;;;;3.88;2.72;;;;;;;13.58;78.13;100203.69;4932027;29;20034;-87
2022/09/29 10:44:46;;;;;;;3.73;2.40;;;;;;;13.66;76.57;100206.84;4935679;29;20032;-87
2022/09/29 10:47:22;;;;;;;2.53;2.33;;;;;;;13.79;79.25;100207.19;4935350;29;20032;-87
2022/09/29 10:50:18;;;;;;;2.63;2.30;;;;;;;13.85;76.75;100208.72;4936173;29;20028;-86
2022/09/29 10:52:51;;;;;;;2.10;2.00;;;;;;;13.97;77.84;100210.84;4935323;29;20115;-87
2022/09/29 10:55:25;;;;;;;2.03;1.83;;;;;;;14.10;79.47;100211.22;4935569;29;20040;-87
2022/09/29 10:57:53;;;;;;;1.50;1.40;;;;;;;14.21;79.73;100208.19;4935887;29;20380;-86
2022/09/29 11:00:37;;;;;;;1.58;1.48;;;;;;;14.34;69.64;100209.38;4935361;29;20032;-87
2022/09/29 11:03:18;;;;;;;1.65;1.55;;;;;;;14.43;77.52;100210.75;4950252;23;20103;-87
2022/09/29 11:06:02;;;;;;;2.58;2.00;;;;;;;14.55;74.66;100205.94;4939761;29;20023;-87
2022/09/29 11:08:29;;;;;;;1.90;1.70;;;;;;;14.60;73.76;100209.19;4939105;29;20039;-87
2022/09/29 11:11:07;;;;;;;1.50;1.40;;;;;;;14.69;77.69;100213.22;4939069;29;20032;-86
2022/09/29 11:13:34;;;;;;;1.52;1.42;;;;;;;14.71;72.96;100207.00;4939332;29;20098;-87
2022/09/29 11:16:34;;;;;;;1.65;1.55;;;;;;;14.79;77.17;100214.53;4938864;29;20032;-86
2022/09/29 11:19:13;;;;;;;1.38;1.27;;;;;;;14.86;75.87;100208.09;4932384;29;20038;-86
2022/09/29 11:21:41;;;;;;;1.30;1.20;;;;;;;14.90;76.83;100214.06;4939276;29;20027;-86
2022/09/29 11:24:29;;;;;;;1.20;1.20;;;;;;;14.90;71.98;100214.91;4945755;23;20051;-87
2022/09/29 11:27:04;;;;;;;2.95;2.03;;;;;;;14.89;70.01;100215.81;4939451;29;20370;-86
2022/09/29 11:29:45;;;;;;;2.30;2.00;;;;;;;14.86;73.46;100215.09;4938713;29;20027;-87
2022/09/29 11:32:33;;;;;;;2.28;1.90;;;;;;;14.89;75.10;100217.59;4939181;29;20032;-87
2022/09/29 11:35:11;;;;;;;1.70;1.60;;;;;;;14.94;74.94;100219.09;4938363;29;20027;-87
2022/09/29 11:38:18;;;;;;;2.00;1.65;;;;;;;15.04;75.38;100216.91;4938878;29;20114;-87
2022/09/29 11:41:03;;;;;;;1.52;1.42;;;;;;;15.13;73.37;100219.13;4939200;29;20051;-86
2022/09/29 11:43:55;;;;;;;1.40;1.30;;;;;;;15.12;64.83;100216.56;4938381;29;20032;-87
2022/09/29 11:46:44;;;;;;;2.25;1.90;;;;;;;15.09;72.44;100221.94;4938788;29;20031;-86
2022/09/29 11:49:19;;;;;;;2.25;1.83;;;;;;;15.11;70.28;100225.31;4937956;29;20036;-87
2022/09/29 11:51:57;;;;;;;2.13;1.60;;;;;;;15.13;69.96;100223.50;4938859;29;20024;-86
2022/09/29 11:54:56;;;;;;;1.23;1.20;;;;;;;15.13;71.89;100224.38;4938385;29;20027;-88
2022/09/29 11:57:59;;;;;;;2.00;1.80;;;;;;;15.02;63.91;100226.59;4928235;29;20027;-89
2022/09/29 12:00:47;;;;;;;2.60;2.40;;;;;;;14.91;69.60;100224.44;4939170;29;20067;-86
2022/09/29 12:03:31;;;;;;;3.55;2.53;;;;;;;14.87;69.57;100222.88;4937640;29;20039;-86
2022/09/29 12:06:35;;;;;;;2.83;2.50;;;;;;;14.74;64.45;100226.94;4938063;29;20450;-86
2022/09/29 12:09:12;;;;;;;2.33;2.10;;;;;;;14.68;63.53;100228.06;4938305;29;20036;-87